sensor_id;sensor_type;location;lat;lon;timestamp;temperature;humidity
34989;DHT22;21192;40.182;44.516;2023-08-01T00:00:06;25.20;59.80
34989;DHT22;21192;40.182;44.516;2023-08-01T00:02:34;25.10;60.00
34989;DHT22;21192;40.182;44.516;2023-08-01T00:05:00;25.10;60.20
34989;DHT22;21192;40.182;44.516;2023-08-01T00:07:29;25.10;60.30
34989;DHT22;21192;40.182;44.516;2023-08-01T00:09:55;25.00;60.40
34989;DHT22;21192;40.182;44.516;2023-08-01T00:12:21;25.00;60.60
34989;DHT22;21192;40.182;44.516;2023-08-01T00:14:47;24.90;60.60
34989;DHT22;21192;40.182;44.516;2023-08-01T00:17:13;24.90;60.80
34989;DHT22;21192;40.182;44.516;2023-08-01T00:19:39;24.90;60.90
34989;DHT22;21192;40.182;44.516;2023-08-01T00:22:05;24.90;60.90
34989;DHT22;21192;40.182;44.516;2023-08-01T00:24:33;24.80;61.10
34989;DHT22;21192;40.182;44.516;2023-08-01T00:26:59;24.80;61.30
34989;DHT22;21192;40.182;44.516;2023-08-01T00:29:25;24.80;61.30
34989;DHT22;21192;40.182;44.516;2023-08-01T00:31:50;24.80;61.50
34989;DHT22;21192;40.182;44.516;2023-08-01T00:34:16;24.80;61.70
34989;DHT22;21192;40.182;44.516;2023-08-01T00:36:42;24.80;61.80
34989;DHT22;21192;40.182;44.516;2023-08-01T00:39:09;24.70;61.90
34989;DHT22;21192;40.182;44.516;2023-08-01T00:41:35;24.70;62.10
34989;DHT22;21192;40.182;44.516;2023-08-01T00:44:01;24.70;62.10
34989;DHT22;21192;40.182;44.516;2023-08-01T00:46:27;24.60;62.10
34989;DHT22;21192;40.182;44.516;2023-08-01T00:48:53;24.60;62.30
34989;DHT22;21192;40.182;44.516;2023-08-01T00:51:23;24.60;62.60
34989;DHT22;21192;40.182;44.516;2023-08-01T00:53:50;24.60;62.70
34989;DHT22;21192;40.182;44.516;2023-08-01T00:56:17;24.60;62.90
34989;DHT22;21192;40.182;44.516;2023-08-01T00:58:43;24.60;63.00
34989;DHT22;21192;40.182;44.516;2023-08-01T01:01:09;24.60;63.20
34989;DHT22;21192;40.182;44.516;2023-08-01T01:03:36;24.60;63.40
34989;DHT22;21192;40.182;44.516;2023-08-01T01:06:13;24.50;63.60
34989;DHT22;21192;40.182;44.516;2023-08-01T01:08:43;24.50;63.80
34989;DHT22;21192;40.182;44.516;2023-08-01T01:11:09;24.50;63.90
34989;DHT22;21192;40.182;44.516;2023-08-01T01:13:35;24.40;64.00
34989;DHT22;21192;40.182;44.516;2023-08-01T01:16:01;24.40;64.10
34989;DHT22;21192;40.182;44.516;2023-08-01T01:18:27;24.40;64.10
34989;DHT22;21192;40.182;44.516;2023-08-01T01:20:53;24.40;64.20
34989;DHT22;21192;40.182;44.516;2023-08-01T01:23:19;24.40;64.30
34989;DHT22;21192;40.182;44.516;2023-08-01T01:25:46;24.30;64.40
34989;DHT22;21192;40.182;44.516;2023-08-01T01:28:15;24.40;64.60
34989;DHT22;21192;40.182;44.516;2023-08-01T01:30:42;24.30;64.60
34989;DHT22;21192;40.182;44.516;2023-08-01T01:33:10;24.30;64.70
34989;DHT22;21192;40.182;44.516;2023-08-01T01:35:36;24.30;64.90
34989;DHT22;21192;40.182;44.516;2023-08-01T01:38:03;24.30;64.80
34989;DHT22;21192;40.182;44.516;2023-08-01T01:40:30;24.30;64.90
34989;DHT22;21192;40.182;44.516;2023-08-01T01:42:58;24.20;65.00
34989;DHT22;21192;40.182;44.516;2023-08-01T01:45:24;24.30;65.10
34989;DHT22;21192;40.182;44.516;2023-08-01T01:47:50;24.20;65.20
34989;DHT22;21192;40.182;44.516;2023-08-01T01:50:15;24.20;65.20
34989;DHT22;21192;40.182;44.516;2023-08-01T01:52:41;24.20;65.10
34989;DHT22;21192;40.182;44.516;2023-08-01T01:55:08;24.20;65.00
34989;DHT22;21192;40.182;44.516;2023-08-01T01:57:34;24.20;65.20
34989;DHT22;21192;40.182;44.516;2023-08-01T02:00:02;24.20;65.20
34989;DHT22;21192;40.182;44.516;2023-08-01T02:02:28;24.30;64.80
34989;DHT22;21192;40.182;44.516;2023-08-01T02:04:54;24.30;64.60
34989;DHT22;21192;40.182;44.516;2023-08-01T02:07:20;24.30;64.70
34989;DHT22;21192;40.182;44.516;2023-08-01T02:09:46;24.30;64.80
34989;DHT22;21192;40.182;44.516;2023-08-01T02:12:12;24.30;64.60
34989;DHT22;21192;40.182;44.516;2023-08-01T02:14:40;24.40;64.60
34989;DHT22;21192;40.182;44.516;2023-08-01T02:17:07;24.30;64.90
34989;DHT22;21192;40.182;44.516;2023-08-01T02:19:33;24.30;65.40
34989;DHT22;21192;40.182;44.516;2023-08-01T02:21:59;24.30;65.50
34989;DHT22;21192;40.182;44.516;2023-08-01T02:24:25;24.30;65.40
34989;DHT22;21192;40.182;44.516;2023-08-01T02:26:51;24.30;65.10
34989;DHT22;21192;40.182;44.516;2023-08-01T02:29:17;24.40;64.80
34989;DHT22;21192;40.182;44.516;2023-08-01T02:31:43;24.50;64.60
34989;DHT22;21192;40.182;44.516;2023-08-01T02:34:09;24.50;64.30
34989;DHT22;21192;40.182;44.516;2023-08-01T02:36:35;24.60;64.00
34989;DHT22;21192;40.182;44.516;2023-08-01T02:39:01;24.80;63.80
34989;DHT22;21192;40.182;44.516;2023-08-01T02:41:27;24.90;63.30
34989;DHT22;21192;40.182;44.516;2023-08-01T02:43:53;25.30;62.70
34989;DHT22;21192;40.182;44.516;2023-08-01T02:46:19;26.00;61.70
34989;DHT22;21192;40.182;44.516;2023-08-01T02:48:45;26.80;60.30
34989;DHT22;21192;40.182;44.516;2023-08-01T02:51:11;27.50;58.90
34989;DHT22;21192;40.182;44.516;2023-08-01T02:53:37;28.20;57.50
34989;DHT22;21192;40.182;44.516;2023-08-01T02:56:06;29.00;56.20
34989;DHT22;21192;40.182;44.516;2023-08-01T02:58:33;29.80;55.00
34989;DHT22;21192;40.182;44.516;2023-08-01T03:00:58;30.60;53.50
34989;DHT22;21192;40.182;44.516;2023-08-01T03:03:24;31.20;52.10
34989;DHT22;21192;40.182;44.516;2023-08-01T03:05:51;31.80;51.10
34989;DHT22;21192;40.182;44.516;2023-08-01T03:08:18;32.30;50.10
34989;DHT22;21192;40.182;44.516;2023-08-01T03:10:44;33.00;49.00
34989;DHT22;21192;40.182;44.516;2023-08-01T03:13:10;33.60;48.10
34989;DHT22;21192;40.182;44.516;2023-08-01T03:15:37;34.20;47.10
34989;DHT22;21192;40.182;44.516;2023-08-01T03:18:03;34.80;46.20
34989;DHT22;21192;40.182;44.516;2023-08-01T03:20:31;35.50;45.40
34989;DHT22;21192;40.182;44.516;2023-08-01T03:22:58;36.20;44.40
34989;DHT22;21192;40.182;44.516;2023-08-01T03:25:24;36.70;43.50
34989;DHT22;21192;40.182;44.516;2023-08-01T03:27:50;37.50;42.60
34989;DHT22;21192;40.182;44.516;2023-08-01T03:30:16;38.30;41.90
34989;DHT22;21192;40.182;44.516;2023-08-01T03:32:42;39.00;41.30
34989;DHT22;21192;40.182;44.516;2023-08-01T03:35:08;39.80;40.40
34989;DHT22;21192;40.182;44.516;2023-08-01T03:37:34;40.50;39.20
34989;DHT22;21192;40.182;44.516;2023-08-01T03:40:00;41.20;38.30
34989;DHT22;21192;40.182;44.516;2023-08-01T03:42:26;42.00;37.50
34989;DHT22;21192;40.182;44.516;2023-08-01T03:44:52;42.60;36.90
34989;DHT22;21192;40.182;44.516;2023-08-01T03:47:19;43.00;36.20
34989;DHT22;21192;40.182;44.516;2023-08-01T03:49:45;43.60;35.60
34989;DHT22;21192;40.182;44.516;2023-08-01T03:52:11;44.10;34.90
34989;DHT22;21192;40.182;44.516;2023-08-01T03:54:37;44.80;34.30
34989;DHT22;21192;40.182;44.516;2023-08-01T03:57:03;45.40;33.60
34989;DHT22;21192;40.182;44.516;2023-08-01T03:59:29;45.90;32.90
34989;DHT22;21192;40.182;44.516;2023-08-01T04:01:55;46.60;32.40
34989;DHT22;21192;40.182;44.516;2023-08-01T04:04:21;46.80;31.80
34989;DHT22;21192;40.182;44.516;2023-08-01T04:06:47;47.10;31.40
34989;DHT22;21192;40.182;44.516;2023-08-01T04:09:14;47.40;30.90
34989;DHT22;21192;40.182;44.516;2023-08-01T04:11:40;47.70;30.40
34989;DHT22;21192;40.182;44.516;2023-08-01T04:14:06;48.10;30.00
34989;DHT22;21192;40.182;44.516;2023-08-01T04:16:32;48.60;29.60
34989;DHT22;21192;40.182;44.516;2023-08-01T04:18:58;49.00;29.40
34989;DHT22;21192;40.182;44.516;2023-08-01T04:21:24;49.30;29.10
34989;DHT22;21192;40.182;44.516;2023-08-01T04:23:50;49.70;28.80
34989;DHT22;21192;40.182;44.516;2023-08-01T04:26:16;50.10;28.60
34989;DHT22;21192;40.182;44.516;2023-08-01T04:28:42;50.50;28.10
34989;DHT22;21192;40.182;44.516;2023-08-01T04:31:07;50.70;28.00
34989;DHT22;21192;40.182;44.516;2023-08-01T04:33:33;50.90;27.80
34989;DHT22;21192;40.182;44.516;2023-08-01T04:35:59;51.20;27.50
34989;DHT22;21192;40.182;44.516;2023-08-01T04:38:25;51.30;27.40
34989;DHT22;21192;40.182;44.516;2023-08-01T04:40:51;51.50;27.70
34989;DHT22;21192;40.182;44.516;2023-08-01T04:43:17;51.40;27.30
34989;DHT22;21192;40.182;44.516;2023-08-01T04:45:43;51.50;27.10
34989;DHT22;21192;40.182;44.516;2023-08-01T04:48:09;51.50;27.00
34989;DHT22;21192;40.182;44.516;2023-08-01T04:50:34;49.70;27.50
34989;DHT22;21192;40.182;44.516;2023-08-01T04:53:00;48.50;27.80
34989;DHT22;21192;40.182;44.516;2023-08-01T04:55:26;49.00;28.10
34989;DHT22;21192;40.182;44.516;2023-08-01T04:57:52;49.30;28.10
34989;DHT22;21192;40.182;44.516;2023-08-01T05:00:18;48.90;28.30
34989;DHT22;21192;40.182;44.516;2023-08-01T05:02:44;49.30;28.00
34989;DHT22;21192;40.182;44.516;2023-08-01T05:05:10;49.40;27.60
34989;DHT22;21192;40.182;44.516;2023-08-01T05:07:36;49.40;28.00
34989;DHT22;21192;40.182;44.516;2023-08-01T05:10:02;48.80;28.00
34989;DHT22;21192;40.182;44.516;2023-08-01T05:12:28;48.00;28.40
34989;DHT22;21192;40.182;44.516;2023-08-01T05:14:54;46.40;29.10
34989;DHT22;21192;40.182;44.516;2023-08-01T05:17:20;44.70;29.80
34989;DHT22;21192;40.182;44.516;2023-08-01T05:19:46;43.50;30.50
34989;DHT22;21192;40.182;44.516;2023-08-01T05:22:12;42.70;31.20
34989;DHT22;21192;40.182;44.516;2023-08-01T05:24:39;41.60;31.90
34989;DHT22;21192;40.182;44.516;2023-08-01T05:27:05;40.50;33.00
34989;DHT22;21192;40.182;44.516;2023-08-01T05:29:31;39.60;34.50
34989;DHT22;21192;40.182;44.516;2023-08-01T05:31:57;38.90;35.00
34989;DHT22;21192;40.182;44.516;2023-08-01T05:34:23;38.80;35.50
34989;DHT22;21192;40.182;44.516;2023-08-01T05:36:49;38.50;35.80
34989;DHT22;21192;40.182;44.516;2023-08-01T05:39:16;38.00;36.20
34989;DHT22;21192;40.182;44.516;2023-08-01T05:41:43;37.60;36.70
34989;DHT22;21192;40.182;44.516;2023-08-01T05:44:09;37.40;37.00
34989;DHT22;21192;40.182;44.516;2023-08-01T05:46:35;37.00;37.40
34989;DHT22;21192;40.182;44.516;2023-08-01T05:49:01;36.30;37.90
34989;DHT22;21192;40.182;44.516;2023-08-01T05:51:27;35.50;38.90
34989;DHT22;21192;40.182;44.516;2023-08-01T05:53:53;35.30;39.50
34989;DHT22;21192;40.182;44.516;2023-08-01T05:56:19;35.20;39.90
34989;DHT22;21192;40.182;44.516;2023-08-01T05:58:44;35.10;40.20
34989;DHT22;21192;40.182;44.516;2023-08-01T06:01:13;34.90;40.70
34989;DHT22;21192;40.182;44.516;2023-08-01T06:03:39;34.60;41.30
34989;DHT22;21192;40.182;44.516;2023-08-01T06:06:05;34.40;41.70
34989;DHT22;21192;40.182;44.516;2023-08-01T06:08:31;34.20;42.00
34989;DHT22;21192;40.182;44.516;2023-08-01T06:10:57;34.00;42.40
34989;DHT22;21192;40.182;44.516;2023-08-01T06:13:23;34.00;42.80
34989;DHT22;21192;40.182;44.516;2023-08-01T06:15:49;33.80;43.00
34989;DHT22;21192;40.182;44.516;2023-08-01T06:18:15;33.70;43.30
34989;DHT22;21192;40.182;44.516;2023-08-01T06:20:41;33.60;43.50
34989;DHT22;21192;40.182;44.516;2023-08-01T06:23:07;33.50;43.70
34989;DHT22;21192;40.182;44.516;2023-08-01T06:25:33;33.40;43.90
34989;DHT22;21192;40.182;44.516;2023-08-01T06:27:59;33.40;43.90
34989;DHT22;21192;40.182;44.516;2023-08-01T06:30:26;33.50;43.80
34989;DHT22;21192;40.182;44.516;2023-08-01T06:32:52;33.50;44.00
34989;DHT22;21192;40.182;44.516;2023-08-01T06:35:21;33.60;44.10
34989;DHT22;21192;40.182;44.516;2023-08-01T06:37:47;33.40;44.30
34989;DHT22;21192;40.182;44.516;2023-08-01T06:40:14;33.30;44.50
34989;DHT22;21192;40.182;44.516;2023-08-01T06:42:40;33.20;44.80
34989;DHT22;21192;40.182;44.516;2023-08-01T06:45:16;33.20;44.80
34989;DHT22;21192;40.182;44.516;2023-08-01T06:47:42;33.20;45.00
34989;DHT22;21192;40.182;44.516;2023-08-01T06:50:10;33.30;44.90
34989;DHT22;21192;40.182;44.516;2023-08-01T06:52:37;33.10;44.70
34989;DHT22;21192;40.182;44.516;2023-08-01T06:55:03;33.10;44.70
34989;DHT22;21192;40.182;44.516;2023-08-01T06:57:29;33.20;44.60
34989;DHT22;21192;40.182;44.516;2023-08-01T06:59:56;33.20;44.40
34989;DHT22;21192;40.182;44.516;2023-08-01T07:02:23;33.30;44.40
34989;DHT22;21192;40.182;44.516;2023-08-01T07:04:50;33.30;44.60
34989;DHT22;21192;40.182;44.516;2023-08-01T07:07:16;33.20;45.10
34989;DHT22;21192;40.182;44.516;2023-08-01T07:09:42;33.10;45.30
34989;DHT22;21192;40.182;44.516;2023-08-01T07:12:08;33.00;45.30
34989;DHT22;21192;40.182;44.516;2023-08-01T07:14:35;32.90;46.10
34989;DHT22;21192;40.182;44.516;2023-08-01T07:17:01;32.80;45.70
34989;DHT22;21192;40.182;44.516;2023-08-01T07:19:27;32.80;45.80
34989;DHT22;21192;40.182;44.516;2023-08-01T07:21:53;32.80;45.90
34989;DHT22;21192;40.182;44.516;2023-08-01T07:24:22;32.80;46.00
34989;DHT22;21192;40.182;44.516;2023-08-01T07:26:50;32.90;45.80
34989;DHT22;21192;40.182;44.516;2023-08-01T07:29:17;32.90;45.70
34989;DHT22;21192;40.182;44.516;2023-08-01T07:31:43;32.90;45.50
34989;DHT22;21192;40.182;44.516;2023-08-01T07:34:12;32.90;45.60
34989;DHT22;21192;40.182;44.516;2023-08-01T07:36:38;33.00;45.50
34989;DHT22;21192;40.182;44.516;2023-08-01T07:39:05;33.10;45.60
34989;DHT22;21192;40.182;44.516;2023-08-01T07:41:31;33.10;45.70
34989;DHT22;21192;40.182;44.516;2023-08-01T07:44:01;33.10;45.60
34989;DHT22;21192;40.182;44.516;2023-08-01T07:46:34;33.00;45.80
34989;DHT22;21192;40.182;44.516;2023-08-01T07:49:00;32.90;45.90
34989;DHT22;21192;40.182;44.516;2023-08-01T07:51:26;32.80;45.70
34989;DHT22;21192;40.182;44.516;2023-08-01T07:53:53;32.80;45.70
34989;DHT22;21192;40.182;44.516;2023-08-01T07:56:21;32.80;45.90
34989;DHT22;21192;40.182;44.516;2023-08-01T07:58:47;32.70;46.10
34989;DHT22;21192;40.182;44.516;2023-08-01T08:01:14;32.60;46.20
34989;DHT22;21192;40.182;44.516;2023-08-01T08:03:42;32.60;46.40
34989;DHT22;21192;40.182;44.516;2023-08-01T08:06:08;32.60;46.20
34989;DHT22;21192;40.182;44.516;2023-08-01T08:08:35;32.60;46.20
34989;DHT22;21192;40.182;44.516;2023-08-01T08:11:02;32.50;46.30
34989;DHT22;21192;40.182;44.516;2023-08-01T08:13:30;32.50;46.30
34989;DHT22;21192;40.182;44.516;2023-08-01T08:15:57;32.50;46.90
34989;DHT22;21192;40.182;44.516;2023-08-01T08:18:23;32.50;46.90
34989;DHT22;21192;40.182;44.516;2023-08-01T08:20:50;32.50;46.80
34989;DHT22;21192;40.182;44.516;2023-08-01T08:23:24;32.50;46.60
34989;DHT22;21192;40.182;44.516;2023-08-01T08:26:03;32.50;46.90
34989;DHT22;21192;40.182;44.516;2023-08-01T08:28:40;32.50;47.10
34989;DHT22;21192;40.182;44.516;2023-08-01T08:31:13;32.40;47.40
34989;DHT22;21192;40.182;44.516;2023-08-01T08:33:44;32.40;47.70
34989;DHT22;21192;40.182;44.516;2023-08-01T08:36:11;32.30;47.80
34989;DHT22;21192;40.182;44.516;2023-08-01T08:38:39;32.30;48.10
34989;DHT22;21192;40.182;44.516;2023-08-01T08:41:09;32.30;48.30
34989;DHT22;21192;40.182;44.516;2023-08-01T08:43:37;32.30;48.50
34989;DHT22;21192;40.182;44.516;2023-08-01T08:46:04;32.30;48.50
34989;DHT22;21192;40.182;44.516;2023-08-01T08:48:31;32.30;48.20
34989;DHT22;21192;40.182;44.516;2023-08-01T08:51:01;32.30;47.90
34989;DHT22;21192;40.182;44.516;2023-08-01T08:53:28;32.30;48.00
34989;DHT22;21192;40.182;44.516;2023-08-01T08:55:54;32.30;48.30
34989;DHT22;21192;40.182;44.516;2023-08-01T08:58:20;32.30;48.80
34989;DHT22;21192;40.182;44.516;2023-08-01T09:00:46;32.30;48.50
34989;DHT22;21192;40.182;44.516;2023-08-01T09:03:12;32.30;48.50
34989;DHT22;21192;40.182;44.516;2023-08-01T09:08:21;32.10;48.70
34989;DHT22;21192;40.182;44.516;2023-08-01T09:10:47;32.10;48.80
34989;DHT22;21192;40.182;44.516;2023-08-01T09:13:14;32.00;48.50
34989;DHT22;21192;40.182;44.516;2023-08-01T09:15:41;32.00;48.50
34989;DHT22;21192;40.182;44.516;2023-08-01T09:18:10;31.90;48.50
34989;DHT22;21192;40.182;44.516;2023-08-01T09:20:42;31.90;49.00
34989;DHT22;21192;40.182;44.516;2023-08-01T09:23:11;31.80;48.50
34989;DHT22;21192;40.182;44.516;2023-08-01T09:25:37;31.80;48.60
34989;DHT22;21192;40.182;44.516;2023-08-01T09:28:03;31.80;48.60
34989;DHT22;21192;40.182;44.516;2023-08-01T09:30:29;31.80;48.50
34989;DHT22;21192;40.182;44.516;2023-08-01T09:32:55;31.80;48.40
34989;DHT22;21192;40.182;44.516;2023-08-01T09:35:22;31.70;48.10
34989;DHT22;21192;40.182;44.516;2023-08-01T09:37:49;31.70;48.10
34989;DHT22;21192;40.182;44.516;2023-08-01T09:40:15;31.70;48.60
34989;DHT22;21192;40.182;44.516;2023-08-01T09:42:45;31.70;48.30
34989;DHT22;21192;40.182;44.516;2023-08-01T09:45:14;31.70;48.00
34989;DHT22;21192;40.182;44.516;2023-08-01T09:47:41;31.70;47.90
34989;DHT22;21192;40.182;44.516;2023-08-01T09:50:13;31.70;47.70
34989;DHT22;21192;40.182;44.516;2023-08-01T09:52:45;31.70;47.60
34989;DHT22;21192;40.182;44.516;2023-08-01T09:57:51;31.70;47.30
34989;DHT22;21192;40.182;44.516;2023-08-01T10:00:18;31.80;47.10
34989;DHT22;21192;40.182;44.516;2023-08-01T10:02:45;31.80;46.90
34989;DHT22;21192;40.182;44.516;2023-08-01T10:05:12;31.80;46.40
34989;DHT22;21192;40.182;44.516;2023-08-01T10:07:39;31.70;46.10
34989;DHT22;21192;40.182;44.516;2023-08-01T10:10:07;31.80;46.40
34989;DHT22;21192;40.182;44.516;2023-08-01T10:12:34;31.90;46.30
34989;DHT22;21192;40.182;44.516;2023-08-01T10:15:00;32.00;45.70
34989;DHT22;21192;40.182;44.516;2023-08-01T10:17:31;32.00;45.70
34989;DHT22;21192;40.182;44.516;2023-08-01T10:19:57;32.00;44.80
34989;DHT22;21192;40.182;44.516;2023-08-01T10:22:25;32.10;44.40
34989;DHT22;21192;40.182;44.516;2023-08-01T10:24:52;32.10;44.30
34989;DHT22;21192;40.182;44.516;2023-08-01T10:27:20;32.10;44.40
34989;DHT22;21192;40.182;44.516;2023-08-01T10:29:56;32.10;44.40
34989;DHT22;21192;40.182;44.516;2023-08-01T10:32:35;32.20;44.60
34989;DHT22;21192;40.182;44.516;2023-08-01T10:35:02;32.30;44.50
34989;DHT22;21192;40.182;44.516;2023-08-01T10:37:42;32.40;44.20
34989;DHT22;21192;40.182;44.516;2023-08-01T10:40:09;32.50;43.80
34989;DHT22;21192;40.182;44.516;2023-08-01T10:42:43;32.50;43.20
34989;DHT22;21192;40.182;44.516;2023-08-01T10:45:23;32.50;43.70
34989;DHT22;21192;40.182;44.516;2023-08-01T10:47:50;32.50;43.30
34989;DHT22;21192;40.182;44.516;2023-08-01T10:50:17;32.60;43.60
34989;DHT22;21192;40.182;44.516;2023-08-01T10:52:44;32.60;43.80
34989;DHT22;21192;40.182;44.516;2023-08-01T10:55:10;32.70;43.90
34989;DHT22;21192;40.182;44.516;2023-08-01T10:57:48;32.80;43.80
34989;DHT22;21192;40.182;44.516;2023-08-01T11:00:18;32.80;43.10
34989;DHT22;21192;40.182;44.516;2023-08-01T11:02:49;32.80;43.00
34989;DHT22;21192;40.182;44.516;2023-08-01T11:05:18;32.70;42.80
34989;DHT22;21192;40.182;44.516;2023-08-01T11:07:57;32.70;42.70
34989;DHT22;21192;40.182;44.516;2023-08-01T11:10:28;32.70;42.80
34989;DHT22;21192;40.182;44.516;2023-08-01T11:12:55;32.70;42.80
34989;DHT22;21192;40.182;44.516;2023-08-01T11:15:23;32.70;42.50
34989;DHT22;21192;40.182;44.516;2023-08-01T11:17:55;32.80;42.20
34989;DHT22;21192;40.182;44.516;2023-08-01T11:20:24;32.80;41.90
34989;DHT22;21192;40.182;44.516;2023-08-01T11:22:59;32.80;42.10
34989;DHT22;21192;40.182;44.516;2023-08-01T11:25:37;33.00;42.30
34989;DHT22;21192;40.182;44.516;2023-08-01T11:28:08;33.10;41.30
34989;DHT22;21192;40.182;44.516;2023-08-01T11:30:35;33.10;40.40
34989;DHT22;21192;40.182;44.516;2023-08-01T11:33:01;33.20;40.00
34989;DHT22;21192;40.182;44.516;2023-08-01T11:35:30;33.20;39.80
34989;DHT22;21192;40.182;44.516;2023-08-01T11:37:56;33.20;39.70
34989;DHT22;21192;40.182;44.516;2023-08-01T11:40:24;33.40;40.20
34989;DHT22;21192;40.182;44.516;2023-08-01T11:42:51;33.40;40.60
34989;DHT22;21192;40.182;44.516;2023-08-01T11:45:17;33.40;41.00
34989;DHT22;21192;40.182;44.516;2023-08-01T11:47:47;33.40;41.00
34989;DHT22;21192;40.182;44.516;2023-08-01T11:50:14;33.50;40.90
34989;DHT22;21192;40.182;44.516;2023-08-01T11:52:40;33.50;41.20
34989;DHT22;21192;40.182;44.516;2023-08-01T11:55:17;33.50;40.70
34989;DHT22;21192;40.182;44.516;2023-08-01T11:57:53;33.50;40.60
34989;DHT22;21192;40.182;44.516;2023-08-01T12:00:24;33.50;40.30
34989;DHT22;21192;40.182;44.516;2023-08-01T12:02:50;33.50;40.20
34989;DHT22;21192;40.182;44.516;2023-08-01T12:05:23;33.60;39.90
34989;DHT22;21192;40.182;44.516;2023-08-01T12:07:49;33.60;39.50
34989;DHT22;21192;40.182;44.516;2023-08-01T12:10:16;33.50;39.40
34989;DHT22;21192;40.182;44.516;2023-08-01T12:12:46;33.60;39.40
34989;DHT22;21192;40.182;44.516;2023-08-01T12:15:15;33.60;39.30
34989;DHT22;21192;40.182;44.516;2023-08-01T12:17:41;33.70;39.20
34989;DHT22;21192;40.182;44.516;2023-08-01T12:20:08;33.70;39.40
34989;DHT22;21192;40.182;44.516;2023-08-01T12:22:34;33.80;39.50
34989;DHT22;21192;40.182;44.516;2023-08-01T12:25:00;33.80;39.30
34989;DHT22;21192;40.182;44.516;2023-08-01T12:27:25;33.90;39.00
34989;DHT22;21192;40.182;44.516;2023-08-01T12:29:53;34.00;38.20
34989;DHT22;21192;40.182;44.516;2023-08-01T12:32:19;34.10;37.90
34989;DHT22;21192;40.182;44.516;2023-08-01T12:34:45;34.00;37.80
34989;DHT22;21192;40.182;44.516;2023-08-01T12:37:11;34.10;37.30
34989;DHT22;21192;40.182;44.516;2023-08-01T12:39:37;34.10;37.20
34989;DHT22;21192;40.182;44.516;2023-08-01T12:42:05;34.10;37.00
34989;DHT22;21192;40.182;44.516;2023-08-01T12:44:31;34.10;36.00
34989;DHT22;21192;40.182;44.516;2023-08-01T12:46:57;34.10;36.20
34989;DHT22;21192;40.182;44.516;2023-08-01T12:49:23;34.20;35.80
34989;DHT22;21192;40.182;44.516;2023-08-01T12:51:49;34.20;35.00
34989;DHT22;21192;40.182;44.516;2023-08-01T12:54:14;34.10;34.50
34989;DHT22;21192;40.182;44.516;2023-08-01T12:56:40;34.10;34.60
34989;DHT22;21192;40.182;44.516;2023-08-01T12:59:06;34.10;34.90
34989;DHT22;21192;40.182;44.516;2023-08-01T13:01:32;34.10;34.90
34989;DHT22;21192;40.182;44.516;2023-08-01T13:04:00;34.10;34.60
34989;DHT22;21192;40.182;44.516;2023-08-01T13:06:26;34.10;34.40
34989;DHT22;21192;40.182;44.516;2023-08-01T13:08:52;34.10;34.20
34989;DHT22;21192;40.182;44.516;2023-08-01T13:11:19;34.10;33.40
34989;DHT22;21192;40.182;44.516;2023-08-01T13:13:45;34.10;32.60
34989;DHT22;21192;40.182;44.516;2023-08-01T13:16:12;34.10;31.80
34989;DHT22;21192;40.182;44.516;2023-08-01T13:18:40;34.10;31.60
34989;DHT22;21192;40.182;44.516;2023-08-01T13:21:09;34.10;31.60
34989;DHT22;21192;40.182;44.516;2023-08-01T13:23:36;34.10;31.20
34989;DHT22;21192;40.182;44.516;2023-08-01T13:26:03;34.10;30.90
34989;DHT22;21192;40.182;44.516;2023-08-01T13:28:32;34.10;30.80
34989;DHT22;21192;40.182;44.516;2023-08-01T13:30:58;34.10;30.50
34989;DHT22;21192;40.182;44.516;2023-08-01T13:33:24;34.10;30.40
34989;DHT22;21192;40.182;44.516;2023-08-01T13:35:53;34.10;30.40
34989;DHT22;21192;40.182;44.516;2023-08-01T13:38:19;34.10;30.50
34989;DHT22;21192;40.182;44.516;2023-08-01T13:40:46;34.10;30.70
34989;DHT22;21192;40.182;44.516;2023-08-01T13:43:17;34.10;30.50
34989;DHT22;21192;40.182;44.516;2023-08-01T13:45:43;34.10;30.10
34989;DHT22;21192;40.182;44.516;2023-08-01T13:48:09;34.20;29.80
34989;DHT22;21192;40.182;44.516;2023-08-01T13:50:39;34.30;29.90
34989;DHT22;21192;40.182;44.516;2023-08-01T13:53:05;34.40;30.00
34989;DHT22;21192;40.182;44.516;2023-08-01T13:55:35;34.30;30.30
34989;DHT22;21192;40.182;44.516;2023-08-01T13:58:01;34.30;30.00
34989;DHT22;21192;40.182;44.516;2023-08-01T14:00:27;34.20;29.80
34989;DHT22;21192;40.182;44.516;2023-08-01T14:02:53;34.30;29.70
34989;DHT22;21192;40.182;44.516;2023-08-01T14:05:25;34.20;29.70
34989;DHT22;21192;40.182;44.516;2023-08-01T14:07:51;34.20;29.80
34989;DHT22;21192;40.182;44.516;2023-08-01T14:10:20;34.20;30.20
34989;DHT22;21192;40.182;44.516;2023-08-01T14:12:47;34.10;30.80
34989;DHT22;21192;40.182;44.516;2023-08-01T14:15:13;34.10;31.00
34989;DHT22;21192;40.182;44.516;2023-08-01T14:17:39;34.10;31.20
34989;DHT22;21192;40.182;44.516;2023-08-01T14:20:06;34.10;31.50
34989;DHT22;21192;40.182;44.516;2023-08-01T14:22:33;34.10;31.70
34989;DHT22;21192;40.182;44.516;2023-08-01T14:24:58;34.00;31.70
34989;DHT22;21192;40.182;44.516;2023-08-01T14:27:24;33.90;31.80
34989;DHT22;21192;40.182;44.516;2023-08-01T14:29:50;33.90;32.20
34989;DHT22;21192;40.182;44.516;2023-08-01T14:32:18;34.00;33.30
34989;DHT22;21192;40.182;44.516;2023-08-01T14:34:44;34.00;34.20
34989;DHT22;21192;40.182;44.516;2023-08-01T14:37:12;34.00;34.40
34989;DHT22;21192;40.182;44.516;2023-08-01T14:39:39;33.90;34.60
34989;DHT22;21192;40.182;44.516;2023-08-01T14:42:06;33.90;34.60
34989;DHT22;21192;40.182;44.516;2023-08-01T14:44:35;33.80;34.80
34989;DHT22;21192;40.182;44.516;2023-08-01T14:47:01;33.70;35.30
34989;DHT22;21192;40.182;44.516;2023-08-01T14:49:27;33.70;35.80
34989;DHT22;21192;40.182;44.516;2023-08-01T14:51:54;33.60;36.30
34989;DHT22;21192;40.182;44.516;2023-08-01T14:54:22;33.50;37.50
34989;DHT22;21192;40.182;44.516;2023-08-01T14:56:48;33.50;38.80
34989;DHT22;21192;40.182;44.516;2023-08-01T14:59:14;33.40;39.30
34989;DHT22;21192;40.182;44.516;2023-08-01T15:01:40;33.30;39.80
34989;DHT22;21192;40.182;44.516;2023-08-01T15:04:06;33.20;40.10
34989;DHT22;21192;40.182;44.516;2023-08-01T15:06:32;33.20;40.60
34989;DHT22;21192;40.182;44.516;2023-08-01T15:08:58;33.00;40.70
34989;DHT22;21192;40.182;44.516;2023-08-01T15:11:24;33.00;41.00
34989;DHT22;21192;40.182;44.516;2023-08-01T15:13:50;32.90;40.90
34989;DHT22;21192;40.182;44.516;2023-08-01T15:16:16;32.90;41.00
34989;DHT22;21192;40.182;44.516;2023-08-01T15:18:42;32.80;41.20